sensor_id;sensor_type;location;lat;lon;timestamp;P1;durP1;ratioP1;P2;durP2;ratioP2
42846;SDS011;75159;49.916;14.536;2024-01-10T00:05:00;50.17;;;23.52;;
42846;SDS011;75159;49.916;14.536;2024-01-10T00:15:22;64.97;;;28.80;;
42846;SDS011;75159;49.916;14.536;2024-01-10T00:25:43;53.75;;;22.58;;
42846;SDS011;75159;49.916;14.536;2024-01-10T00:36:04;48.45;;;19.23;;
42846;SDS011;75159;49.916;14.536;2024-01-10T00:46:26;42.58;;;19.15;;
42846;SDS011;75159;49.916;14.536;2024-01-10T00:56:47;35.63;;;15.77;;
42846;SDS011;75159;49.916;14.536;2024-01-10T01:07:10;32.45;;;14.73;;
42846;SDS011;75159;49.916;14.536;2024-01-10T01:17:31;36.42;;;14.85;;
42846;SDS011;75159;49.916;14.536;2024-01-10T01:27:52;34.33;;;14.52;;
42846;SDS011;75159;49.916;14.536;2024-01-10T01:38:13;28.48;;;12.30;;
42846;SDS011;75159;49.916;14.536;2024-01-10T01:48:35;38.35;;;16.95;;
42846;SDS011;75159;49.916;14.536;2024-01-10T01:58:57;28.75;;;11.88;;
42846;SDS011;75159;49.916;14.536;2024-01-10T02:09:18;26.25;;;11.82;;
42846;SDS011;75159;49.916;14.536;2024-01-10T02:19:40;24.67;;;11.23;;
42846;SDS011;75159;49.916;14.536;2024-01-10T02:30:02;24.95;;;11.40;;
42846;SDS011;75159;49.916;14.536;2024-01-10T02:40:24;25.63;;;10.05;;
42846;SDS011;75159;49.916;14.536;2024-01-10T02:50:45;41.55;;;17.88;;
42846;SDS011;75159;49.916;14.536;2024-01-10T03:01:06;37.90;;;17.08;;
42846;SDS011;75159;49.916;14.536;2024-01-10T03:11:28;48.05;;;22.10;;
42846;SDS011;75159;49.916;14.536;2024-01-10T03:21:51;33.28;;;14.95;;
42846;SDS011;75159;49.916;14.536;2024-01-10T03:32:12;21.55;;;10.27;;
42846;SDS011;75159;49.916;14.536;2024-01-10T03:42:34;20.70;;;9.25;;
42846;SDS011;75159;49.916;14.536;2024-01-10T03:52:55;18.23;;;7.25;;
42846;SDS011;75159;49.916;14.536;2024-01-10T04:03:16;15.15;;;6.68;;
42846;SDS011;75159;49.916;14.536;2024-01-10T04:13:37;15.18;;;6.85;;
42846;SDS011;75159;49.916;14.536;2024-01-10T04:23:59;23.00;;;10.90;;
42846;SDS011;75159;49.916;14.536;2024-01-10T04:34:20;39.70;;;18.60;;
42846;SDS011;75159;49.916;14.536;2024-01-10T04:44:43;45.95;;;18.75;;
42846;SDS011;75159;49.916;14.536;2024-01-10T04:55:04;39.45;;;17.33;;
42846;SDS011;75159;49.916;14.536;2024-01-10T05:16:33;57.35;;;24.27;;
42846;SDS011;75159;49.916;14.536;2024-01-10T05:26:54;43.03;;;17.92;;
42846;SDS011;75159;49.916;14.536;2024-01-10T05:37:15;38.47;;;16.40;;
42846;SDS011;75159;49.916;14.536;2024-01-10T05:47:37;42.05;;;18.25;;
42846;SDS011;75159;49.916;14.536;2024-01-10T05:57:58;31.95;;;13.88;;
42846;SDS011;75159;49.916;14.536;2024-01-10T06:08:19;23.90;;;13.23;;
42846;SDS011;75159;49.916;14.536;2024-01-10T06:18:41;29.25;;;12.13;;
42846;SDS011;75159;49.916;14.536;2024-01-10T06:29:02;16.65;;;8.98;;
42846;SDS011;75159;49.916;14.536;2024-01-10T06:39:24;19.98;;;8.70;;
42846;SDS011;75159;49.916;14.536;2024-01-10T06:49:46;27.75;;;13.38;;
42846;SDS011;75159;49.916;14.536;2024-01-10T07:00:07;25.67;;;11.30;;
42846;SDS011;75159;49.916;14.536;2024-01-10T07:10:32;27.02;;;11.85;;
42846;SDS011;75159;49.916;14.536;2024-01-10T07:20:53;24.30;;;11.50;;
42846;SDS011;75159;49.916;14.536;2024-01-10T07:31:14;57.33;;;24.13;;
42846;SDS011;75159;49.916;14.536;2024-01-10T07:41:36;56.70;;;22.50;;
42846;SDS011;75159;49.916;14.536;2024-01-10T07:51:57;60.30;;;25.33;;
42846;SDS011;75159;49.916;14.536;2024-01-10T08:02:20;62.88;;;23.98;;
42846;SDS011;75159;49.916;14.536;2024-01-10T08:12:43;64.20;;;25.17;;
42846;SDS011;75159;49.916;14.536;2024-01-10T08:23:05;75.90;;;27.98;;
42846;SDS011;75159;49.916;14.536;2024-01-10T08:33:27;68.88;;;27.08;;
42846;SDS011;75159;49.916;14.536;2024-01-10T08:43:48;59.22;;;25.25;;
42846;SDS011;75159;49.916;14.536;2024-01-10T08:54:09;58.78;;;25.02;;
42846;SDS011;75159;49.916;14.536;2024-01-10T09:04:33;50.85;;;22.92;;
42846;SDS011;75159;49.916;14.536;2024-01-10T09:14:57;69.20;;;27.45;;
42846;SDS011;75159;49.916;14.536;2024-01-10T09:25:19;71.50;;;29.60;;
42846;SDS011;75159;49.916;14.536;2024-01-10T09:35:40;64.60;;;28.50;;
42846;SDS011;75159;49.916;14.536;2024-01-10T09:46:01;52.15;;;24.42;;
42846;SDS011;75159;49.916;14.536;2024-01-10T09:56:30;30.93;;;13.60;;
42846;SDS011;75159;49.916;14.536;2024-01-10T10:06:59;18.65;;;7.32;;
42846;SDS011;75159;49.916;14.536;2024-01-10T10:27:44;10.32;;;5.75;;
42846;SDS011;75159;49.916;14.536;2024-01-10T10:38:07;20.60;;;7.88;;
42846;SDS011;75159;49.916;14.536;2024-01-10T10:48:32;14.50;;;6.35;;
42846;SDS011;75159;49.916;14.536;2024-01-10T10:58:55;14.50;;;6.38;;
42846;SDS011;75159;49.916;14.536;2024-01-10T11:09:19;28.60;;;15.07;;
42846;SDS011;75159;49.916;14.536;2024-01-10T11:19:58;71.63;;;27.63;;
42846;SDS011;75159;49.916;14.536;2024-01-10T11:30:48;58.97;;;25.23;;
42846;SDS011;75159;49.916;14.536;2024-01-10T11:52:00;59.13;;;26.17;;
42846;SDS011;75159;49.916;14.536;2024-01-10T12:02:23;58.67;;;26.48;;
42846;SDS011;75159;49.916;14.536;2024-01-10T12:12:46;52.47;;;23.63;;
42846;SDS011;75159;49.916;14.536;2024-01-10T12:23:07;53.38;;;21.27;;
42846;SDS011;75159;49.916;14.536;2024-01-10T12:33:28;53.13;;;25.45;;
42846;SDS011;75159;49.916;14.536;2024-01-10T12:43:54;48.83;;;21.17;;
42846;SDS011;75159;49.916;14.536;2024-01-10T12:54:16;53.15;;;20.73;;
42846;SDS011;75159;49.916;14.536;2024-01-10T13:04:40;30.83;;;12.90;;
42846;SDS011;75159;49.916;14.536;2024-01-10T13:15:04;27.58;;;12.15;;
42846;SDS011;75159;49.916;14.536;2024-01-10T13:25:26;36.53;;;15.45;;
42846;SDS011;75159;49.916;14.536;2024-01-10T13:35:47;19.40;;;10.32;;
42846;SDS011;75159;49.916;14.536;2024-01-10T13:46:12;30.23;;;13.57;;
42846;SDS011;75159;49.916;14.536;2024-01-10T13:56:33;32.97;;;15.73;;
42846;SDS011;75159;49.916;14.536;2024-01-10T14:06:57;37.65;;;17.20;;
42846;SDS011;75159;49.916;14.536;2024-01-10T14:17:18;30.77;;;15.48;;
42846;SDS011;75159;49.916;14.536;2024-01-10T14:27:41;37.35;;;17.52;;
42846;SDS011;75159;49.916;14.536;2024-01-10T14:38:02;29.55;;;14.45;;
42846;SDS011;75159;49.916;14.536;2024-01-10T14:48:24;38.72;;;19.00;;
42846;SDS011;75159;49.916;14.536;2024-01-10T14:58:46;29.60;;;14.68;;
42846;SDS011;75159;49.916;14.536;2024-01-10T15:09:10;21.58;;;11.60;;
42846;SDS011;75159;49.916;14.536;2024-01-10T15:19:34;26.85;;;11.10;;
42846;SDS011;75159;49.916;14.536;2024-01-10T15:30:05;31.25;;;13.95;;
42846;SDS011;75159;49.916;14.536;2024-01-10T15:40:47;15.75;;;8.32;;
42846;SDS011;75159;49.916;14.536;2024-01-10T15:51:33;21.52;;;9.43;;
42846;SDS011;75159;49.916;14.536;2024-01-10T16:04:06;23.30;;;11.40;;
42846;SDS011;75159;49.916;14.536;2024-01-10T16:14:27;25.13;;;12.13;;
42846;SDS011;75159;49.916;14.536;2024-01-10T16:24:48;27.88;;;13.68;;
42846;SDS011;75159;49.916;14.536;2024-01-10T16:35:09;25.35;;;13.43;;
42846;SDS011;75159;49.916;14.536;2024-01-10T16:45:31;32.95;;;15.35;;
42846;SDS011;75159;49.916;14.536;2024-01-10T16:55:55;25.63;;;12.80;;
42846;SDS011;75159;49.916;14.536;2024-01-10T17:06:18;24.67;;;13.43;;
42846;SDS011;75159;49.916;14.536;2024-01-10T17:16:39;34.85;;;16.65;;
42846;SDS011;75159;49.916;14.536;2024-01-10T17:27:02;39.92;;;19.48;;
42846;SDS011;75159;49.916;14.536;2024-01-10T17:37:23;19.42;;;9.70;;
42846;SDS011;75159;49.916;14.536;2024-01-10T17:47:44;14.13;;;7.40;;
42846;SDS011;75159;49.916;14.536;2024-01-10T17:58:05;33.63;;;14.23;;
42846;SDS011;75159;49.916;14.536;2024-01-10T18:08:26;24.20;;;12.10;;
42846;SDS011;75159;49.916;14.536;2024-01-10T18:18:47;23.92;;;12.77;;
42846;SDS011;75159;49.916;14.536;2024-01-10T18:29:08;24.80;;;13.30;;
42846;SDS011;75159;49.916;14.536;2024-01-10T18:39:30;35.42;;;19.65;;
42846;SDS011;75159;49.916;14.536;2024-01-10T18:49:51;67.97;;;28.63;;
42846;SDS011;75159;49.916;14.536;2024-01-10T19:00:12;35.45;;;16.92;;
42846;SDS011;75159;49.916;14.536;2024-01-10T19:10:35;34.83;;;16.42;;
42846;SDS011;75159;49.916;14.536;2024-01-10T19:20:56;33.90;;;17.40;;
42846;SDS011;75159;49.916;14.536;2024-01-10T19:31:17;34.38;;;18.75;;
42846;SDS011;75159;49.916;14.536;2024-01-10T19:41:38;19.70;;;9.80;;
42846;SDS011;75159;49.916;14.536;2024-01-10T19:51:59;37.30;;;15.77;;
42846;SDS011;75159;49.916;14.536;2024-01-10T20:02:20;47.15;;;22.42;;
42846;SDS011;75159;49.916;14.536;2024-01-10T20:12:44;56.22;;;27.45;;
42846;SDS011;75159;49.916;14.536;2024-01-10T20:23:05;51.45;;;23.45;;
42846;SDS011;75159;49.916;14.536;2024-01-10T20:33:26;36.55;;;16.85;;
42846;SDS011;75159;49.916;14.536;2024-01-10T20:43:47;31.15;;;14.52;;
42846;SDS011;75159;49.916;14.536;2024-01-10T20:54:08;42.08;;;19.30;;
42846;SDS011;75159;49.916;14.536;2024-01-10T21:04:29;35.95;;;17.65;;
42846;SDS011;75159;49.916;14.536;2024-01-10T21:14:50;29.20;;;14.55;;
42846;SDS011;75159;49.916;14.536;2024-01-10T21:25:11;31.55;;;16.27;;
42846;SDS011;75159;49.916;14.536;2024-01-10T21:35:33;30.20;;;15.48;;
42846;SDS011;75159;49.916;14.536;2024-01-10T21:45:54;29.75;;;13.18;;
42846;SDS011;75159;49.916;14.536;2024-01-10T21:56:15;26.95;;;12.65;;
42846;SDS011;75159;49.916;14.536;2024-01-10T22:06:36;26.70;;;11.70;;
42846;SDS011;75159;49.916;14.536;2024-01-10T22:16:57;21.98;;;12.07;;
42846;SDS011;75159;49.916;14.536;2024-01-10T22:27:17;29.15;;;14.68;;
42846;SDS011;75159;49.916;14.536;2024-01-10T22:37:40;39.58;;;19.25;;
42846;SDS011;75159;49.916;14.536;2024-01-10T22:48:01;46.10;;;20.60;;
42846;SDS011;75159;49.916;14.536;2024-01-10T22:58:23;31.27;;;14.40;;
42846;SDS011;75159;49.916;14.536;2024-01-10T23:08:49;30.88;;;16.60;;
42846;SDS011;75159;49.916;14.536;2024-01-10T23:19:10;31.60;;;15.05;;
42846;SDS011;75159;49.916;14.536;2024-01-10T23:29:31;36.83;;;17.23;;
42846;SDS011;75159;49.916;14.536;2024-01-10T23:39:52;29.55;;;13.25;;
42846;SDS011;75159;49.916;14.536;2024-01-10T23:50:13;31.63;;;15.20;;
